Hermon, New York
Current Conditions -  °F | °C
As of 10:53 PM on Wednesday 22 Oct 2014 (Local Time) from KMSS Reporting Station
Few Clouds Few Clouds  
Wind Chill: 40°   Ceiling: Unl
Heat Index: 46°   Visibility: 10mi
Dew Point: 35°   Wind: 15mph
Humidity: 66%   Direction: 40°NE
Pressure: 30.2"   Gusts: NA
Location:  44.47°N, 75.23°W
Report Text: KMSS 230253Z AUTO 04013KT 10SM FEW060 08/02 A3020 RMK AO2 SLP228 T00780017 58008
Loading
Personal Weather Stations






























Interactive Weather Map
Tropical Storm Tracking
New forecast layout! Learn more

10-Day Weather Forecast

Advertisements
Track Severe Weather on mobile